createdAt,value
2022-11-16T00:04:06.630Z,95671.00
2022-11-16T00:09:22.487Z,95675.00
2022-11-16T00:14:27.274Z,95660.00
2022-11-16T00:19:28.851Z,95663.00
2022-11-16T00:24:29.597Z,95655.00
2022-11-16T00:29:30.524Z,95653.00
2022-11-16T00:34:31.291Z,95658.00
2022-11-16T00:39:32.013Z,95647.00
2022-11-16T00:44:32.787Z,95650.00
2022-11-16T00:49:33.822Z,95636.00
2022-11-16T00:54:34.699Z,95643.00
2022-11-16T00:59:35.522Z,95638.00
2022-11-16T01:04:36.603Z,95637.00
2022-11-16T01:09:37.339Z,95636.00
2022-11-16T01:14:43.940Z,95637.00
2022-11-16T01:19:45.632Z,95631.00
2022-11-16T01:24:46.811Z,95625.00
2022-11-16T01:29:47.808Z,95615.00
2022-11-16T01:34:48.984Z,95622.00
2022-11-16T01:40:00.249Z,95619.00
2022-11-16T01:46:07.720Z,95615.00
2022-11-16T01:51:09.038Z,95618.00
2022-11-16T01:56:10.333Z,95620.00
2022-11-16T02:01:22.209Z,95622.00
2022-11-16T02:07:22.814Z,95614.00
2022-11-16T02:16:03.180Z,95620.00
2022-11-16T02:22:05.796Z,95636.00
2022-11-16T02:30:15.169Z,95628.00
2022-11-16T02:35:39.862Z,95620.00
2022-11-16T02:40:46.360Z,95614.00
2022-11-16T02:45:55.418Z,95609.00
2022-11-16T02:50:56.829Z,95607.00
2022-11-16T02:55:58.809Z,95599.00
2022-11-16T03:01:12.891Z,95592.00
2022-11-16T03:06:28.216Z,95580.00
2022-11-16T03:11:51.248Z,95571.00
2022-11-16T03:16:57.121Z,95574.00
2022-11-16T03:22:13.551Z,95560.00
2022-11-16T03:28:58.042Z,95570.00
2022-11-16T03:34:02.643Z,95588.00
2022-11-16T03:39:09.971Z,95592.00
2022-11-16T03:44:13.180Z,95607.00
2022-11-16T03:49:14.141Z,95620.00
2022-11-16T03:54:16.080Z,95619.00
2022-11-16T03:59:16.931Z,95617.00
2022-11-16T04:04:37.737Z,95617.00
2022-11-16T04:09:57.641Z,95616.00
2022-11-16T04:15:17.563Z,95612.00
2022-11-16T04:20:37.048Z,95621.00
2022-11-16T04:25:40.687Z,95630.00
2022-11-16T04:31:08.497Z,95631.00
2022-11-16T04:36:29.241Z,95622.00
2022-11-16T04:41:50.158Z,95635.00
2022-11-16T04:47:07.124Z,95633.00
2022-11-16T04:52:08.497Z,95631.00
2022-11-16T04:57:09.822Z,95636.00
2022-11-16T05:02:10.874Z,95630.00
2022-11-16T05:07:17.956Z,95627.00
2022-11-16T05:12:25.524Z,95635.00
2022-11-16T05:17:30.024Z,95647.00
2022-11-16T05:22:32.991Z,95645.00
2022-11-16T05:27:35.821Z,95636.00
2022-11-16T05:32:36.996Z,95646.00
2022-11-16T05:37:39.241Z,95649.00
2022-11-16T05:42:40.248Z,95652.00
2022-11-16T05:47:41.702Z,95649.00
2022-11-16T05:52:42.623Z,95644.00
2022-11-16T05:57:44.942Z,95641.00
2022-11-16T06:02:45.897Z,95638.00
2022-11-16T06:07:53.780Z,95643.00
2022-11-16T06:12:55.402Z,95652.00
2022-11-16T06:17:57.567Z,95657.00
2022-11-16T06:22:59.351Z,95655.00
2022-11-16T06:28:06.621Z,95664.00
2022-11-16T06:33:09.264Z,95675.00
2022-11-16T06:38:17.602Z,95674.00
2022-11-16T06:43:19.868Z,95666.00
2022-11-16T06:48:21.602Z,95676.00
2022-11-16T06:53:28.703Z,95690.00
2022-11-16T06:58:32.090Z,95693.00
2022-11-16T07:03:33.380Z,95712.00
2022-11-16T07:08:37.117Z,95715.00
2022-11-16T07:13:38.625Z,95726.00
2022-11-16T07:18:41.697Z,95738.00
2022-11-16T07:23:43.993Z,95741.00
2022-11-16T07:28:48.670Z,95753.00
2022-11-16T07:33:52.036Z,95761.00
2022-11-16T07:39:11.616Z,95764.00
2022-11-16T07:44:13.365Z,95775.00
2022-11-16T07:49:17.674Z,95784.00
2022-11-16T07:54:34.662Z,95783.00
2022-11-16T07:59:36.162Z,95791.00
2022-11-16T08:04:40.604Z,95796.00
2022-11-16T08:09:42.709Z,95788.00
2022-11-16T08:14:46.567Z,95788.00
2022-11-16T08:19:47.798Z,95799.00
2022-11-16T08:24:49.554Z,95789.00
2022-11-16T08:29:52.050Z,95781.00
2022-11-16T08:34:52.936Z,95777.00
2022-11-16T08:39:54.419Z,95782.00
2022-11-16T08:44:55.499Z,95786.00
2022-11-16T08:49:56.577Z,95788.00
2022-11-16T08:54:58.696Z,95797.00
2022-11-16T09:00:00.224Z,95792.00
2022-11-16T09:05:01.640Z,95794.00
2022-11-16T09:10:03.102Z,95787.00
2022-11-16T09:15:05.917Z,95794.00
2022-11-16T09:20:07.675Z,95798.00
2022-11-16T09:25:09.214Z,95803.00
2022-11-16T09:30:11.297Z,95803.00
2022-11-16T09:35:12.203Z,95807.00
2022-11-16T09:40:13.235Z,95811.00
2022-11-16T09:46:40.901Z,95817.00
2022-11-16T09:51:46.376Z,95821.00
2022-11-16T09:56:51.017Z,95818.00
2022-11-16T10:02:01.933Z,95820.00
2022-11-16T10:07:14.182Z,95825.00
2022-11-16T10:13:24.599Z,95823.00
2022-11-16T10:21:27.104Z,95809.00
2022-11-16T10:26:44.461Z,95816.00
2022-11-16T10:32:02.830Z,95794.00
2022-11-16T10:37:07.669Z,95795.00
2022-11-16T10:42:18.512Z,95795.00
2022-11-16T10:47:32.369Z,95797.00
2022-11-16T10:52:34.783Z,95799.00
2022-11-16T10:57:56.243Z,95776.00
2022-11-16T11:02:57.058Z,95784.00
2022-11-16T11:08:09.434Z,95777.00
2022-11-16T11:13:26.115Z,95772.00
2022-11-16T11:18:29.228Z,95768.00
2022-11-16T11:23:37.009Z,95765.00
2022-11-16T11:28:44.839Z,95757.00
2022-11-16T11:33:55.196Z,95762.00
2022-11-16T11:39:00.461Z,95763.00
2022-11-16T11:44:14.249Z,95760.00
2022-11-16T11:49:27.985Z,95758.00
2022-11-16T11:54:45.525Z,95753.00
2022-11-16T11:59:50.897Z,95749.00
2022-11-16T12:05:26.651Z,95746.00
2022-11-16T12:10:52.917Z,95732.00
2022-11-16T12:17:45.419Z,95735.00
2022-11-16T12:23:23.788Z,95725.00
2022-11-16T12:29:45.025Z,95721.00
2022-11-16T12:36:38.623Z,95705.00
2022-11-16T12:45:32.077Z,95702.00
2022-11-16T12:50:58.916Z,95700.00
2022-11-16T13:01:08.537Z,95692.00
2022-11-16T13:06:17.111Z,95682.00
2022-11-16T13:11:31.268Z,95691.00
2022-11-16T13:16:33.656Z,95686.00
2022-11-16T13:22:18.049Z,95679.00
2022-11-16T13:27:47.278Z,95676.00
2022-11-16T13:33:25.401Z,95669.00
2022-11-16T13:38:50.679Z,95667.00
2022-11-16T13:43:51.976Z,95668.00
2022-11-16T13:48:52.795Z,95660.00
2022-11-16T13:59:27.600Z,95640.00
2022-11-16T14:04:54.254Z,95643.00
2022-11-16T14:09:55.433Z,95635.00
2022-11-16T14:15:19.230Z,95648.00
2022-11-16T14:20:48.936Z,95651.00
2022-11-16T14:27:34.256Z,95639.00
2022-11-16T14:32:45.885Z,95643.00
2022-11-16T14:37:57.727Z,95646.00
2022-11-16T14:43:20.974Z,95639.00
2022-11-16T14:48:31.636Z,95641.00
2022-11-16T14:53:36.238Z,95651.00
2022-11-16T14:58:38.165Z,95646.00
2022-11-16T15:03:54.729Z,95633.00
2022-11-16T15:08:59.875Z,95639.00
2022-11-16T15:14:00.896Z,95624.00
2022-11-16T15:19:01.966Z,95626.00
2022-11-16T15:29:35.222Z,95614.00
2022-11-16T15:34:38.345Z,95619.00
2022-11-16T15:39:39.281Z,95603.00
2022-11-16T15:44:41.976Z,95595.00
2022-11-16T15:49:48.767Z,95594.00
2022-11-16T15:55:03.034Z,95598.00
2022-11-16T16:00:04.795Z,95599.00
2022-11-16T16:05:06.705Z,95589.00
2022-11-16T16:10:23.841Z,95598.00
2022-11-16T16:15:36.251Z,95587.00
2022-11-16T16:20:37.204Z,95581.00
2022-11-16T16:25:38.173Z,95568.00
2022-11-16T16:30:38.966Z,95565.00
2022-11-16T16:35:39.733Z,95564.00
2022-11-16T16:40:40.477Z,95563.00
2022-11-16T16:45:43.284Z,95564.00
2022-11-16T16:50:44.025Z,95557.00
2022-11-16T16:55:48.374Z,95551.00
2022-11-16T17:00:49.163Z,95543.00
2022-11-16T17:05:50.106Z,95547.00
2022-11-16T17:10:51.093Z,95546.00
2022-11-16T17:15:51.967Z,95532.00
2022-11-16T17:20:52.699Z,95534.00
2022-11-16T17:25:53.831Z,95537.00
2022-11-16T17:31:00.292Z,95525.00
2022-11-16T17:36:03.098Z,95522.00
2022-11-16T17:41:06.498Z,95510.00
2022-11-16T17:46:13.845Z,95503.00
2022-11-16T17:51:17.514Z,95498.00
2022-11-16T17:56:21.316Z,95491.00
2022-11-16T18:01:22.145Z,95487.00
2022-11-16T18:06:24.569Z,95474.00
2022-11-16T18:11:26.820Z,95478.00
2022-11-16T18:16:31.011Z,95468.00
2022-11-16T18:21:38.406Z,95468.00
2022-11-16T18:26:40.180Z,95476.00
2022-11-16T18:31:40.960Z,95463.00
2022-11-16T18:36:41.975Z,95459.00
2022-11-16T18:41:48.749Z,95465.00
2022-11-16T18:46:54.611Z,95471.00
2022-11-16T18:51:55.416Z,95468.00
2022-11-16T18:56:56.253Z,95463.00
2022-11-16T19:01:57.012Z,95463.00
2022-11-16T19:06:57.997Z,95462.00
2022-11-16T19:11:58.864Z,95452.00
2022-11-16T19:17:00.179Z,95451.00
2022-11-16T19:22:01.157Z,95454.00
2022-11-16T19:27:01.977Z,95455.00
2022-11-16T19:32:02.850Z,95447.00
2022-11-16T19:37:03.631Z,95455.00
2022-11-16T19:42:04.436Z,95453.00
2022-11-16T19:47:05.845Z,95455.00
2022-11-16T19:52:06.691Z,95443.00
2022-11-16T19:57:07.462Z,95442.00
2022-11-16T20:02:09.382Z,95437.00
2022-11-16T20:07:11.383Z,95435.00
2022-11-16T20:12:12.114Z,95438.00
2022-11-16T20:17:13.010Z,95419.00
2022-11-16T20:22:14.774Z,95412.00
2022-11-16T20:27:15.609Z,95406.00
2022-11-16T20:32:17.132Z,95393.00
2022-11-16T20:37:18.054Z,95394.00
2022-11-16T20:42:18.845Z,95387.00
2022-11-16T20:47:19.675Z,95382.00
2022-11-16T20:52:20.904Z,95378.00
2022-11-16T20:57:22.065Z,95368.00
2022-11-16T21:02:22.813Z,95371.00
2022-11-16T21:07:23.741Z,95365.00
2022-11-16T21:12:43.220Z,95356.00
2022-11-16T21:17:44.098Z,95344.00
2022-11-16T21:22:44.859Z,95333.00
2022-11-16T21:27:46.430Z,95330.00
2022-11-16T21:32:47.168Z,95329.00
2022-11-16T21:37:47.923Z,95323.00
2022-11-16T21:42:50.780Z,95319.00
2022-11-16T21:47:51.566Z,95312.00
2022-11-16T21:52:52.424Z,95313.00
2022-11-16T21:57:53.325Z,95301.00
2022-11-16T22:02:54.599Z,95297.00
2022-11-16T22:07:55.889Z,95298.00
2022-11-16T22:12:56.653Z,95295.00
2022-11-16T22:17:57.434Z,95288.00
2022-11-16T22:22:58.168Z,95278.00
2022-11-16T22:28:19.576Z,95277.00
2022-11-16T22:33:21.295Z,95269.00
2022-11-16T22:38:22.523Z,95254.00
2022-11-16T22:43:25.645Z,95247.00
2022-11-16T22:48:34.032Z,95247.00
2022-11-16T22:53:35.208Z,95231.00
2022-11-16T22:58:37.794Z,95221.00
2022-11-16T23:03:39.081Z,95226.00
2022-11-16T23:08:40.703Z,95221.00
2022-11-16T23:14:01.061Z,95208.00
2022-11-16T23:19:02.619Z,95202.00
2022-11-16T23:24:22.584Z,95190.00
2022-11-16T23:29:23.421Z,95182.00
2022-11-16T23:34:24.183Z,95166.00
2022-11-16T23:39:24.915Z,95148.00
2022-11-16T23:44:25.691Z,95141.00
2022-11-16T23:49:26.535Z,95130.00
2022-11-16T23:54:27.273Z,95118.00
2022-11-16T23:59:28.159Z,95126.00
